KNYL

Yuma International Airport

Airport
ICAO code
KNYL
Summary
ICAO Region
NAM
ICAO Territory
Location

Yuma, Arizona,

Coordinates
32° 40' 7" N , 114° 35' 56" W
KCC
Airport RI
Runway Misidentification
Metar
KNYL 142057Z 23008G17KT 7SM CLR 40/04 A2974 RMK AO2 SLP066 T04000044 58019

Description

Joint use public and military (USMC) international airport serving Yuma, Arizona.

Climatology

Desert climate (Köppen climate classification Bwh) with extremely hot summers and warm winters. Yuma is one of the hottest cities of any size in Arizona, with average July high temperatures of 107 °F (42 °C). Yuma is among the sunniest places on earth. Of the possible 4,456 hours of daylight each year, the sun shines in Yuma for roughly 4,174 hours, or about 94% of the time.

Runways

Designator Length Width Surface Rops
17/35 1740 46 ASP Yes/Yes
8/26 1873 46 ASP Yes/Yes
03R/21L 2816 46 ASP Yes/Yes
03L/21R 4054 61 CON Yes/Yes

Airport map

Aerial View

SKYbrary Partners:

Safety knowledge contributed by: